ADDS METAR Data INFO
IDs: Format: Raw Decoded Include TAF

Data at: 0510 UTC 23 May 2017

KXBP 230455Z AUTO 00000KT 10SM SCT034 20/16 A2994 RMK AO2 LTG DSNT N AND NE T01950160
KXBP 230435Z AUTO 17006KT 10SM CLR 20/16 A2993 RMK AO2 LTG DSNT N AND NE T01950158
KXBP 230415Z AUTO 16004KT 10SM CLR 19/16 A2993 RMK AO2 LTG DSNT N AND NE T01910155
KXBP 230355Z AUTO 16005KT 10SM CLR 19/15 A2993 RMK AO2 LTG DSNT W THRU NE T01900154
KXBP 230335Z AUTO 00000KT 10SM SCT090 20/15 A2994 RMK AO2 LTG DSNT NE AND SW T01950154
KXBP 230315Z AUTO 18003KT 10SM CLR 20/16 A2995 RMK AO2 LTG DSNT N AND NE T02020155
KXBP 230255Z AUTO 00000KT 10SM CLR 20/16 A2993 RMK AO2 LTG DSNT N AND NE T02040155
KXBP 230235Z AUTO 00000KT 10SM CLR 21/15 A2992 RMK AO2 LTG DSNT N T02100153
KXBP 230215Z AUTO 13003KT 10SM CLR 20/16 A2992 RMK AO2 T02040156
KXBP 230155Z AUTO 00000KT 10SM SCT070 21/16 A2993 RMK AO2 T02120155
KXBP 230135Z AUTO 00000KT 10SM SCT060 BKN070 22/15 A2993 RMK AO2 LTG DSNT N T02210150
KXBP 230115Z AUTO 00000KT 10SM SCT060 BKN070 23/15 A2992 RMK AO2 T02260148
KXBP 230055Z AUTO 12006KT 10SM BKN060 OVC070 23/15 A2991 RMK AO2 LTG DSNT N T02280150
KXBP 230035Z AUTO 13003KT 10SM OVC060 23/15 A2993 RMK AO2 LTG DSNT N AND W T02310152
KXBP 230015Z AUTO 00000KT 10SM OVC050 24/15 A2993 RMK AO2 T02350148
KXBP 222355Z AUTO 08003KT 10SM OVC050 24/15 A2994 RMK AO2 T02350146 10254 20228
KXBP 222335Z AUTO 12003KT 10SM OVC050 24/15 A2993 RMK AO2 T02380145
KXBP 222315Z AUTO 13004KT 10SM SCT041 OVC050 24/15 A2994 RMK AO2 T02420147
KXBP 222255Z AUTO 15004KT 10SM SCT041 BKN050 25/14 A2995 RMK AO2 LTG DSNT N T02450139
KXBP 222235Z AUTO 10006KT 10SM SCT035 BKN050 25/15 A2995 RMK AO2 T02530146
KXBP 222215Z AUTO 06005KT 10SM SCT035 OVC050 24/15 A2996 RMK AO2 LTG DSNT N T02420145
KXBP 222155Z AUTO 14004KT 10SM OVC048 24/15 A2996 RMK AO2 T02420145
KXBP 222135Z AUTO 13005KT 10SM OVC050 24/14 A2998 RMK AO2 T02410142
KXBP 222115Z AUTO 00000KT 10SM OVC048 24/14 A2998 RMK AO2 T02400142
KXBP 222055Z AUTO 11005KT 10SM OVC046 24/15 A2999 RMK AO2 T02390148
KXBP 222035Z AUTO 13004KT 10SM OVC046 24/15 A3000 RMK AO2 T02400146
KXBP 222015Z AUTO 12004KT 10SM OVC044 24/15 A3001 RMK AO2 T02400151
KXBP 221955Z AUTO 11004KT 10SM SCT031 OVC039 23/15 A3001 RMK AO2 T02330148
KXBP 221935Z AUTO 12006KT 10SM SCT032 OVC040 25/15 A3001 RMK AO2 T02480151
KXBP 221915Z AUTO 13007KT 10SM OVC034 23/15 A3002 RMK AO2 T02310148
KXBP 221855Z AUTO 12003KT 10SM OVC034 23/15 A3003 RMK AO2 T02310145
KXBP 221835Z AUTO 10007KT 10SM BKN032 24/15 A3003 RMK AO2 T02350145
KXBP 221815Z AUTO 11006KT 10SM BKN032 23/15 A3004 RMK AO2 T02340145
KXBP 221755Z AUTO 11005KT 10SM BKN030 24/15 A3005 RMK AO2 T02390145 10241 20140
KXBP 221735Z AUTO 11005KT 10SM SCT028 23/14 A3006 RMK AO2 LTG DSNT S T02320144
KXBP 221715Z AUTO 11005KT 10SM BKN028 23/14 A3007 RMK AO2 T02320142
KXBP 221655Z AUTO 13004KT 10SM SCT028 22/14 A3009 RMK AO2 T02240139
KXBP 221635Z AUTO 08004KT 10SM CLR 22/14 A3010 RMK AO2 T02200139
KXBP 221615Z AUTO 04004KT 10SM SCT024 22/14 A3011 RMK AO2 T02150138
KXBP 221555Z AUTO 00000KT 10SM SCT022 20/14 A3011 RMK AO2 T02040137
KXBP 221535Z AUTO 12004KT 10SM SCT022 21/14 A3012 RMK AO2 T02090135
KXBP 221515Z AUTO 13006KT 10SM SCT020 20/14 A3012 RMK AO2 T02000135
KXBP 221455Z AUTO 15006KT 10SM SCT018 SCT024 20/14 A3013 RMK AO2 T01950136
KXBP 221435Z AUTO 14007G14KT 10SM SCT018 19/14 A3012 RMK AO2 T01930135
KXBP 221415Z AUTO 14009G14KT 10SM CLR 19/14 A3011 RMK AO2 T01860136
KXBP 221355Z AUTO 12009KT 7SM SCT011 18/15 A3011 RMK AO2 T01810147
KXBP 221335Z AUTO 13005KT 10SM CLR 17/15 A3011 RMK AO2 T01680154
KXBP 221315Z AUTO 00000KT 10SM CLR 16/16 A3010 RMK AO2 T01620161
KXBP 221255Z AUTO 14004KT 10SM CLR 16/16 A3010 RMK AO2 T01590159
KXBP 221235Z AUTO 00000KT 10SM CLR 16/16 A3010 RMK AO2 T01560156
KXBP 221215Z AUTO 00000KT 10SM CLR 15/15 A3009 RMK AO2 T01460146
KXBP 221155Z AUTO 00000KT 10SM CLR 14/14 A3010 RMK AO2 T01380138 10183 20134
KXBP 221135Z AUTO 00000KT 10SM CLR 14/14 A3010 RMK AO2 T01400140
KXBP 221115Z AUTO 00000KT 10SM CLR 15/15 A3011 RMK AO2 T01460145
KXBP 221055Z AUTO 00000KT 10SM CLR 15/14 A3010 RMK AO2 T01450142
KXBP 221035Z AUTO 12003KT 10SM CLR 15/14 A3011 RMK AO2 T01470140
KXBP 221015Z AUTO 00000KT 10SM CLR 15/15 A3011 RMK AO2 T01520150
KXBP 220955Z AUTO 00000KT 10SM CLR 16/14 A3012 RMK AO2 T01580141
KXBP 220935Z AUTO 00000KT 10SM CLR 16/14 A3012 RMK AO2 LTG DSNT S T01600138
KXBP 220915Z AUTO 00000KT 10SM CLR 16/14 A3012 RMK AO2 T01620140
KXBP 220855Z AUTO 17003KT 10SM SCT120 16/14 A3012 RMK AO2 T01620140
KXBP 220835Z AUTO 18004KT 10SM -RA BKN120 17/14 A3013 RMK AO2 T01650140
KXBP 220815Z AUTO 19003KT 10SM SCT120 16/14 A3014 RMK AO2 T01630143
KXBP 220755Z AUTO 00000KT 10SM SCT041 BKN055 17/14 A3015 RMK AO2 T01650143
KXBP 220735Z AUTO 27003KT 10SM BKN041 BKN070 BKN085 17/14 A3015 RMK AO2 T01680140
KXBP 220715Z AUTO 16004KT 10SM VCTS CLR 17/14 A3014 RMK AO2 LTG DSNT W T01690136
KXBP 220655Z AUTO 16004KT 10SM CLR 17/14 A3014 RMK AO2 T01670142
KXBP 220635Z AUTO 16005KT 10SM CLR 17/13 A3014 RMK AO2 T01660134
KXBP 220615Z AUTO 16003KT 10SM -DZ SCT060 SCT075 17/13 A3014 RMK AO2 T01700130
KXBP 220555Z AUTO 14003KT 10SM DZ SCT060 SCT075 OVC085 18/12 A3014 RMK AO2 T01840119 10228 20177 402540118
KXBP 220535Z AUTO 15003KT 10SM SCT065 OVC095 19/11 A3014 RMK AO2 T01910112
KXBP 220515Z AUTO 15007KT 10SM BKN065 BKN095 BKN120 19/12 A3015 RMK AO2 T01850116
KXBP 220455Z AUTO 00000KT 10SM SCT065 BKN120 18/12 A3014 RMK AO2 T01830116
KXBP 220435Z AUTO 00000KT 10SM BKN065 18/13 A3014 RMK AO2 T01790129
KXBP 220415Z AUTO 00000KT 10SM CLR 19/11 A3014 RMK AO2 T01890114
KXBP 220355Z AUTO 00000KT 10SM CLR 19/11 A3013 RMK AO2 T01920110
KXBP 220335Z AUTO 00000KT 10SM SCT070 20/11 A3014 RMK AO2 T01960107
KXBP 220315Z AUTO 11003KT 10SM BKN070 BKN120 20/11 A3013 RMK AO2 T01980111
KXBP 220255Z AUTO 11003KT 10SM SCT070 BKN120 20/12 A3013 RMK AO2 T01970118
KXBP 220235Z AUTO 00000KT 10SM SCT120 20/12 A3013 RMK AO2 T01960122
KXBP 220215Z AUTO 00000KT 10SM BKN120 20/12 A3012 RMK AO2 T01950123
KXBP 220155Z AUTO 00000KT 10SM BKN120 19/13 A3011 RMK AO2 T01910130
KXBP 220135Z AUTO 00000KT 10SM SCT110 20/12 A3011 RMK AO2 LTG DSNT S T02020116
KXBP 220115Z AUTO 00000KT 10SM OVC110 21/11 A3011 RMK AO2 T02100111
KXBP 220055Z AUTO 00000KT 10SM SCT110 22/11 A3010 RMK AO2 T02160107
KXBP 220035Z AUTO 00000KT 10SM CLR 22/10 A3010 RMK AO2 T02210102
KXBP 220015Z AUTO 10004KT 10SM CLR 23/10 A3010 RMK AO2 T02250100
KXBP 212355Z AUTO 10004KT 10SM CLR 23/11 A3011 RMK AO2 T02280106 10254 20228
KXBP 212335Z AUTO 11004KT 10SM CLR 23/10 A3012 RMK AO2 T02330101
KXBP 212315Z AUTO 10005KT 10SM CLR 24/10 A3012 RMK AO2 T02350101
KXBP 212255Z AUTO 10005KT 10SM CLR 24/10 A3013 RMK AO2 T02400095
KXBP 212235Z AUTO 10005KT 10SM CLR 24/09 A3012 RMK AO2 T02410092
KXBP 212215Z AUTO 12007KT 10SM CLR 25/09 A3012 RMK AO2 T02450090
KXBP 212155Z AUTO 12006KT 10SM SCT120 25/09 A3013 RMK AO2 T02470094
KXBP 212135Z AUTO 09007KT 10SM SCT120 25/09 A3013 RMK AO2 LTG DSNT SW T02470088
KXBP 212115Z AUTO 09006KT 10SM SCT120 25/09 A3013 RMK AO2 T02490085
KXBP 212055Z AUTO 09007KT 10SM SCT110 25/08 A3013 RMK AO2 T02530084
KXBP 212035Z AUTO 10008KT 10SM SCT120 25/09 A3014 RMK AO2 T02520085
KXBP 212015Z AUTO 12007KT 10SM BKN120 25/08 A3015 RMK AO2 T02490082
KXBP 211955Z AUTO 11007KT 10SM BKN110 25/08 A3015 RMK AO2 T02510083
KXBP 211935Z AUTO 07007G15KT 10SM CLR 25/08 A3014 RMK AO2 T02520078
KXBP 211915Z AUTO 06010KT 10SM SCT120 25/07 A3014 RMK AO2 T02460074
KXBP 211855Z AUTO 08007KT 040V110 10SM SCT120 25/08 A3016 RMK AO2 T02510080
KXBP 211835Z AUTO 07006KT 10SM SCT110 24/08 A3017 RMK AO2 T02420080
KXBP 211815Z AUTO 08005KT 10SM BKN110 24/08 A3018 RMK AO2 T02420080
KXBP 211755Z AUTO 07006KT 10SM BKN110 24/08 A3019 RMK AO2 LTG DSNT SE T02360077 10245 20147
KXBP 211735Z AUTO 10009KT 10SM SCT120 24/07 A3018 RMK AO2 T02360073
KXBP 211715Z AUTO 07008KT 10SM SCT110 23/08 A3020 RMK AO2 T02290075


Page loaded:  05:10 UTC  |   10:10 PM Pacific  |   11:10 PM Mountain  |   12:10 AM Central  |   01:10 AM Eastern

 

ADVISORIES

FORECASTS

FORECASTS

OBSERVATIONS

USER TOOLS

ABOUT US